Time;durP1;ratioP1;P1;durP2;ratioP2;P2;SDS_P1;SDS_P2;PMS_P1;PMS_P2;Temp;Humidity;BMP_temperature;BMP_pressure;BME280_temperature;BME280_humidity;BME280_pressure;Samples;Min_cycle;Max_cycle;Signal;HPM_P1;HPM_P2
2021/12/05 00:22:32;;;;;;;17.15;3.92;;;6.00;99.90;;;;;;5090020;28;20479;-76
2021/12/05 00:25:00;;;;;;;22.05;3.97;;;5.90;99.90;;;;;;5089604;28;20062;-76
2021/12/05 00:27:35;;;;;;;23.73;4.40;;;5.90;99.90;;;;;;5089828;28;20077;-76
2021/12/05 00:33:46;;;;;;;19.08;4.22;;;5.80;99.90;;;;;;5089765;28;19955;-76
2021/12/05 00:57:29;;;;;;;12.63;5.30;;;5.60;99.90;;;;;;5069161;28;20028;-76
2021/12/05 01:07:44;;;;;;;22.92;5.22;;;5.60;99.90;;;;;;5068979;28;20118;-75
2021/12/05 01:15:26;;;;;;;16.10;5.47;;;5.60;99.90;;;;;;5028600;28;20037;-75
2021/12/05 01:18:04;;;;;;;17.33;5.13;;;5.60;99.90;;;;;;5028867;28;20109;-76
2021/12/05 01:20:35;;;;;;;16.15;5.15;;;5.60;99.90;;;;;;5028477;28;20037;-75
2021/12/05 01:23:22;;;;;;;18.23;4.40;;;5.60;99.90;;;;;;5027488;28;20034;-75
2021/12/05 01:25:58;;;;;;;18.85;3.80;;;5.60;99.90;;;;;;5028827;28;20402;-75
2021/12/05 01:31:12;;;;;;;16.27;3.80;;;5.70;99.90;;;;;;5029814;28;20036;-76
2021/12/05 01:44:15;;;;;;;17.00;3.45;;;5.70;99.90;;;;;;5028565;28;20530;-75
2021/12/05 01:49:19;;;;;;;15.13;2.72;;;5.70;99.90;;;;;;5028516;28;20074;-75
2021/12/05 01:57:32;;;;;;;13.50;3.60;;;5.60;99.90;;;;;;5028070;28;20029;-75
2021/12/05 02:08:07;;;;;;;13.63;3.13;;;5.60;99.90;;;;;;5028092;28;20051;-76
2021/12/05 02:16:20;;;;;;;13.63;3.13;;;5.50;99.90;;;;;;5027952;28;20044;-76
2021/12/05 02:45:27;;;;;;;10.90;4.00;;;5.40;99.90;;;;;;5028138;28;20036;-76
2021/12/05 02:47:54;;;;;;;15.52;4.10;;;5.40;99.90;;;;;;5027262;28;20723;-76
2021/12/05 02:50:24;;;;;;;9.40;4.13;;;5.30;99.90;;;;;;5027637;28;20067;-76
2021/12/05 02:52:52;;;;;;;11.07;3.83;;;5.30;99.90;;;;;;5027135;28;20117;-75
2021/12/05 02:55:25;;;;;;;12.73;4.07;;;5.30;99.90;;;;;;5027569;28;20290;-76
2021/12/05 02:57:59;;;;;;;11.98;4.05;;;5.30;99.90;;;;;;5027547;28;20033;-76
2021/12/05 03:00:44;;;;;;;9.52;4.00;;;5.30;99.90;;;;;;5027065;28;20025;-76
2021/12/05 03:03:21;;;;;;;11.52;4.70;;;5.30;99.90;;;;;;5027396;28;20036;-76
2021/12/05 03:05:58;;;;;;;12.82;5.53;;;5.30;99.90;;;;;;5025811;28;20037;-76
2021/12/05 03:08:24;;;;;;;16.63;5.82;;;5.30;99.90;;;;;;5027070;28;20049;-76
2021/12/05 03:10:51;;;;;;;9.90;4.57;;;5.30;99.90;;;;;;5026933;28;20057;-76
2021/12/05 03:13:17;;;;;;;10.43;3.83;;;5.30;99.90;;;;;;5027725;28;20095;-76
2021/12/05 03:15:43;;;;;;;9.57;4.00;;;5.30;99.90;;;;;;5029310;28;20453;-76
2021/12/05 03:18:09;;;;;;;6.75;2.80;;;5.30;99.90;;;;;;5030103;28;20068;-76
2021/12/05 03:20:35;;;;;;;4.68;2.05;;;5.30;99.90;;;;;;5029059;28;20021;-76
2021/12/05 03:23:01;;;;;;;3.65;1.58;;;5.30;99.90;;;;;;5030206;28;20090;-76
2021/12/05 03:25:27;;;;;;;3.58;1.50;;;5.20;99.90;;;;;;5030041;28;20053;-76
2021/12/05 03:27:55;;;;;;;3.63;1.20;;;5.20;99.90;;;;;;5030194;28;20014;-76
2021/12/05 03:30:24;;;;;;;7.03;1.60;;;5.10;99.90;;;;;;5030203;28;20496;-76
2021/12/05 03:32:52;;;;;;;6.03;1.77;;;5.10;99.90;;;;;;5030701;28;20021;-75
2021/12/05 03:35:24;;;;;;;2.20;1.45;;;5.10;99.90;;;;;;5029963;28;20512;-76
2021/12/05 03:37:51;;;;;;;5.10;2.00;;;5.10;99.90;;;;;;5029836;28;20025;-76
2021/12/05 03:40:19;;;;;;;3.42;2.00;;;5.10;99.90;;;;;;5029863;28;20252;-76
2021/12/05 03:42:45;;;;;;;5.20;2.53;;;5.10;99.90;;;;;;5030053;28;20053;-76
2021/12/05 03:45:15;;;;;;;8.23;2.63;;;5.10;99.90;;;;;;5030153;28;20486;-76
2021/12/05 03:47:41;;;;;;;5.63;3.15;;;5.10;99.90;;;;;;5029864;28;20025;-76
2021/12/05 03:50:10;;;;;;;5.47;2.75;;;5.10;99.90;;;;;;5029785;28;20119;-76
2021/12/05 03:52:36;;;;;;;6.75;2.88;;;5.00;99.90;;;;;;5029755;28;20041;-76
2021/12/05 03:55:03;;;;;;;6.05;2.88;;;5.00;99.90;;;;;;5029721;28;20385;-76
2021/12/05 03:57:29;;;;;;;4.55;3.00;;;5.00;99.90;;;;;;5029723;28;20390;-76
2021/12/05 03:59:55;;;;;;;7.18;3.10;;;5.00;99.90;;;;;;5034543;28;20025;-76
2021/12/05 04:02:21;;;;;;;8.13;2.92;;;5.00;99.90;;;;;;5029682;28;20067;-77
2021/12/05 04:04:46;;;;;;;8.02;3.75;;;5.00;99.90;;;;;;5029331;28;20051;-77
2021/12/05 04:07:15;;;;;;;7.65;3.60;;;5.10;99.90;;;;;;5029860;28;20029;-76
2021/12/05 04:09:41;;;;;;;7.47;3.95;;;5.00;99.90;;;;;;5029572;28;20029;-76
2021/12/05 04:12:07;;;;;;;7.78;4.03;;;5.10;99.90;;;;;;5029708;28;20075;-76
2021/12/05 04:14:45;;;;;;;9.07;4.90;;;5.10;99.90;;;;;;5029365;28;20043;-76
2021/12/05 04:17:12;;;;;;;8.07;4.78;;;5.00;99.90;;;;;;5045012;28;20542;-76
2021/12/05 04:19:39;;;;;;;10.60;4.90;;;5.10;99.90;;;;;;5029780;28;20022;-76
2021/12/05 04:22:06;;;;;;;11.73;4.85;;;5.10;99.90;;;;;;5029463;28;20022;-76
2021/12/05 04:24:33;;;;;;;7.88;5.78;;;5.10;99.90;;;;;;5028534;28;20538;-76
2021/12/05 04:26:59;;;;;;;11.18;6.45;;;5.10;99.90;;;;;;5029628;28;20051;-76
2021/12/05 04:29:25;;;;;;;13.30;7.13;;;5.10;99.90;;;;;;5029266;28;20021;-76
2021/12/05 04:31:51;;;;;;;10.02;6.63;;;5.00;99.90;;;;;;5029258;28;20022;-75
2021/12/05 04:34:17;;;;;;;9.82;6.45;;;5.00;99.90;;;;;;5029135;28;20613;-76
2021/12/05 04:36:44;;;;;;;10.13;5.97;;;5.00;99.90;;;;;;5029556;28;20413;-76
2021/12/05 04:39:11;;;;;;;7.43;5.60;;;5.00;99.90;;;;;;5029299;28;20025;-76
2021/12/05 04:41:40;;;;;;;9.32;4.97;;;5.10;99.90;;;;;;5029259;28;20034;-76
2021/12/05 04:44:07;;;;;;;9.82;5.82;;;5.00;99.90;;;;;;5029099;28;20049;-76
2021/12/05 04:46:33;;;;;;;11.68;6.05;;;5.00;99.90;;;;;;5028251;28;20077;-75
2021/12/05 04:49:00;;;;;;;10.73;6.88;;;5.00;99.90;;;;;;5043643;28;20144;-76
2021/12/05 04:51:31;;;;;;;11.35;6.72;;;5.00;99.90;;;;;;5028835;28;20033;-76
2021/12/05 04:53:58;;;;;;;10.98;6.57;;;5.00;99.90;;;;;;5028939;28;20390;-76
2021/12/05 04:56:25;;;;;;;12.35;6.82;;;5.00;99.90;;;;;;5029103;28;20025;-75
2021/12/05 04:58:52;;;;;;;9.98;6.25;;;5.00;99.90;;;;;;5028781;28;20028;-75
2021/12/05 05:01:19;;;;;;;8.55;5.63;;;5.00;99.90;;;;;;5028394;28;20026;-75
2021/12/05 05:03:45;;;;;;;9.35;5.32;;;5.00;99.90;;;;;;5028644;28;20026;-76
2021/12/05 05:06:14;;;;;;;7.35;5.15;;;5.00;99.90;;;;;;5028594;28;20060;-76
2021/12/05 05:08:43;;;;;;;8.50;4.88;;;5.00;99.90;;;;;;5028741;28;20024;-76
2021/12/05 05:11:13;;;;;;;8.32;4.95;;;5.00;99.90;;;;;;5028626;28;20051;-76
2021/12/05 05:13:39;;;;;;;8.57;5.05;;;5.00;99.90;;;;;;5028563;28;20053;-76
2021/12/05 05:16:06;;;;;;;9.18;5.97;;;5.00;99.90;;;;;;5028604;28;20482;-76
2021/12/05 05:18:43;;;;;;;11.55;6.95;;;5.00;99.90;;;;;;5028657;28;20462;-76
2021/12/05 05:45:25;;;;;;;12.38;7.88;;;5.00;99.90;;;;;;5028500;28;20059;-75
2021/12/05 05:50:19;;;;;;;12.00;7.80;;;4.90;99.90;;;;;;5028384;28;20482;-76
2021/12/05 05:52:45;;;;;;;13.77;7.28;;;4.90;99.90;;;;;;5027887;28;20032;-76
2021/12/05 05:55:12;;;;;;;12.00;7.18;;;4.90;99.90;;;;;;5028549;28;20025;-76
2021/12/05 05:57:46;;;;;;;13.52;7.13;;;4.90;99.90;;;;;;5026737;28;20049;-76
2021/12/05 06:00:28;;;;;;;13.07;7.13;;;4.90;99.90;;;;;;5043426;28;20059;-77
2021/12/05 06:05:38;;;;;;;6.63;4.57;;;4.90;99.90;;;;;;5028176;28;20065;-76
2021/12/05 06:08:04;;;;;;;9.82;6.15;;;4.90;99.90;;;;;;5028050;28;20482;-77
2021/12/05 06:10:31;;;;;;;13.27;6.70;;;4.90;99.90;;;;;;5027873;28;20117;-75
2021/12/05 06:12:58;;;;;;;9.20;6.25;;;4.90;99.90;;;;;;5027638;28;20029;-77
2021/12/05 06:15:26;;;;;;;12.73;6.22;;;4.90;99.90;;;;;;5027843;28;20018;-76
2021/12/05 06:17:55;;;;;;;11.13;6.18;;;4.90;99.90;;;;;;5027592;28;20461;-76
2021/12/05 06:20:25;;;;;;;10.38;5.70;;;4.80;99.90;;;;;;5026218;28;20021;-75
2021/12/05 06:22:52;;;;;;;9.70;5.55;;;4.80;99.90;;;;;;5027512;28;20530;-77
2021/12/05 06:25:22;;;;;;;9.63;5.18;;;4.80;99.90;;;;;;5027817;28;20045;-76
2021/12/05 06:27:53;;;;;;;9.82;4.75;;;4.90;99.90;;;;;;5027497;28;20030;-76
2021/12/05 06:41:37;;;;;;;5.60;3.42;;;4.80;99.90;;;;;;5128382;28;20038;-76
2021/12/05 06:47:05;;;;;;;4.20;2.80;;;4.80;99.90;;;;;;5047902;28;20060;-76
2021/12/05 06:49:31;;;;;;;6.50;3.63;;;4.90;99.90;;;;;;5051419;28;20032;-76
2021/12/05 06:51:57;;;;;;;7.95;3.13;;;4.90;99.90;;;;;;5051309;28;20570;-76
2021/12/05 06:54:24;;;;;;;6.10;3.72;;;4.90;99.90;;;;;;5051497;28;20032;-76
2021/12/05 06:56:49;;;;;;;6.10;3.67;;;4.80;99.90;;;;;;5051462;28;20054;-76
2021/12/05 06:59:15;;;;;;;6.60;3.70;;;4.90;99.90;;;;;;5051431;28;20033;-77
2021/12/05 07:01:41;;;;;;;8.95;4.53;;;4.90;99.90;;;;;;5051190;28;20017;-76
2021/12/05 07:04:18;;;;;;;5.97;4.53;;;4.90;99.90;;;;;;5051158;28;20041;-76
2021/12/05 07:06:44;;;;;;;9.05;4.50;;;4.90;99.90;;;;;;5051094;28;20115;-76
2021/12/05 07:09:10;;;;;;;8.52;5.20;;;4.80;99.90;;;;;;5052725;28;20159;-76
2021/12/05 07:11:47;;;;;;;9.23;6.13;;;4.80;99.90;;;;;;5071252;28;20029;-77
2021/12/05 07:14:35;;;;;;;7.85;5.60;;;4.80;99.90;;;;;;5071157;28;20459;-76
2021/12/05 07:21:58;;;;;;;11.82;6.53;;;4.80;99.90;;;;;;5030423;28;20064;-76
2021/12/05 07:24:36;;;;;;;11.55;6.75;;;4.80;99.90;;;;;;5045454;28;20045;-76
2021/12/05 07:40:17;;;;;;;11.23;6.55;;;4.70;99.90;;;;;;5030234;28;20097;-76
2021/12/05 07:40:45;;;;;;;7.90;5.53;;;4.60;99.90;;;;;;5029647;28;20066;-76
2021/12/05 07:43:12;;;;;;;11.40;6.05;;;4.60;99.90;;;;;;5030673;28;20474;-76
2021/12/05 07:45:44;;;;;;;9.57;5.90;;;4.70;99.90;;;;;;5030330;28;20078;-76
2021/12/05 07:48:18;;;;;;;9.15;5.60;;;4.70;99.90;;;;;;5035425;28;20041;-76
2021/12/05 07:53:21;;;;;;;8.90;5.60;;;4.70;99.90;;;;;;5029772;27;20048;-76
2021/12/05 07:55:50;;;;;;;10.98;5.85;;;4.70;99.90;;;;;;5033325;28;20634;-76
2021/12/05 08:17:15;;;;;;;11.82;6.68;;;4.60;99.90;;;;;;5075995;28;20037;-75
2021/12/05 08:19:40;;;;;;;11.35;6.25;;;4.50;99.90;;;;;;5028923;28;20474;-75
2021/12/05 08:22:06;;;;;;;13.50;6.47;;;4.50;99.90;;;;;;5029500;28;20060;-77
2021/12/05 08:24:33;;;;;;;15.02;7.50;;;4.50;99.90;;;;;;5028152;28;20049;-77
2021/12/05 08:27:02;;;;;;;13.75;7.60;;;4.50;99.90;;;;;;5031136;27;20054;-76
2021/12/05 08:29:42;;;;;;;16.23;8.50;;;4.50;99.90;;;;;;5029083;28;20351;-76
2021/12/05 10:14:16;;;;;;;7.90;4.72;;;5.70;99.90;;;;;;5027864;28;20055;-76
2021/12/05 10:17:09;;;;;;;11.00;6.25;;;5.80;99.90;;;;;;5112874;27;20072;-77
2021/12/05 10:37:09;;;;;;;7.93;5.00;;;6.10;99.90;;;;;;5033053;28;20033;-76
2021/12/05 10:39:36;;;;;;;10.38;5.38;;;6.20;99.90;;;;;;5037332;28;20506;-76
2021/12/05 10:42:24;;;;;;;8.75;5.18;;;6.20;99.90;;;;;;5028411;28;20403;-80
2021/12/05 10:44:50;;;;;;;9.23;4.97;;;6.20;99.90;;;;;;5027829;28;20037;-77
2021/12/05 10:47:39;;;;;;;10.80;5.32;;;6.30;99.90;;;;;;5032737;28;20459;-77
2021/12/05 10:50:27;;;;;;;16.55;8.68;;;6.30;99.90;;;;;;5025801;28;20087;-76
2021/12/05 10:53:18;;;;;;;7.90;4.72;;;6.30;99.90;;;;;;5026701;28;20056;-76
2021/12/05 10:55:44;;;;;;;9.73;4.82;;;6.30;99.90;;;;;;5026751;28;20104;-76
2021/12/05 10:58:09;;;;;;;8.68;4.88;;;6.30;99.90;;;;;;5026980;28;20055;-76
2021/12/05 11:00:36;;;;;;;9.00;4.82;;;6.30;99.90;;;;;;5027089;28;20022;-77
2021/12/05 11:03:19;;;;;;;7.72;4.18;;;6.40;99.90;;;;;;5027004;28;20101;-77
2021/12/05 11:05:45;;;;;;;6.82;4.40;;;6.30;99.90;;;;;;5027465;28;20034;-76
2021/12/05 11:08:35;;;;;;;9.27;4.20;;;6.30;99.90;;;;;;5026844;28;20082;-77
2021/12/05 11:11:10;;;;;;;8.25;4.70;;;6.30;99.90;;;;;;5047024;28;20098;-77
2021/12/05 11:13:38;;;;;;;6.75;4.10;;;6.40;99.90;;;;;;5047042;27;20026;-76
2021/12/05 11:16:24;;;;;;;6.93;4.07;;;6.40;99.90;;;;;;5047023;28;20056;-77
2021/12/05 11:18:49;;;;;;;5.78;3.83;;;6.30;99.90;;;;;;5062352;27;20112;-78
2021/12/05 11:21:33;;;;;;;8.10;4.10;;;6.30;99.90;;;;;;5045419;27;20568;-79
2021/12/05 11:24:08;;;;;;;4.75;3.30;;;6.30;99.90;;;;;;5062080;28;20163;-77
2021/12/05 11:26:34;;;;;;;4.53;3.50;;;6.30;99.90;;;;;;5046476;28;20034;-78
2021/12/05 11:29:00;;;;;;;6.20;3.70;;;6.30;99.90;;;;;;5062392;27;20029;-78
2021/12/05 11:31:28;;;;;;;5.82;3.53;;;6.40;99.90;;;;;;5046757;27;20425;-79
2021/12/05 11:33:55;;;;;;;6.60;3.47;;;6.50;99.90;;;;;;5047352;27;20021;-77
2021/12/05 11:36:28;;;;;;;6.05;3.47;;;6.50;99.90;;;;;;5053306;28;20024;-77
2021/12/05 11:38:55;;;;;;;4.85;3.40;;;6.60;99.90;;;;;;5069221;27;20025;-77
2021/12/05 11:41:23;;;;;;;6.13;3.60;;;6.60;99.90;;;;;;5053372;28;20021;-77
2021/12/05 11:43:58;;;;;;;4.93;3.28;;;6.80;99.90;;;;;;5053067;28;20081;-77
2021/12/05 11:46:27;;;;;;;;;;;6.90;99.90;;;;;;5053990;27;20434;-77
2021/12/05 11:48:59;;;;;;;4.90;3.33;;;7.00;99.90;;;;;;5053616;28;19904;-77
2021/12/05 11:51:36;;;;;;;6.57;3.42;;;7.00;99.90;;;;;;5069353;28;20081;-77
2021/12/05 11:54:08;;;;;;;4.72;3.20;;;7.00;99.90;;;;;;5068813;28;20054;-76
2021/12/05 11:56:48;;;;;;;6.60;3.30;;;7.10;99.90;;;;;;5053893;28;20021;-76
2021/12/05 11:59:28;;;;;;;4.63;3.13;;;7.10;99.90;;;;;;5053399;28;20033;-77
2021/12/05 12:02:14;;;;;;;3.35;2.83;;;7.10;99.90;;;;;;5050083;28;20108;-76
2021/12/05 12:04:54;;;;;;;6.65;3.33;;;7.10;99.90;;;;;;5037674;28;20120;-76
2021/12/05 12:07:45;;;;;;;5.00;3.40;;;7.10;99.90;;;;;;5033277;28;20053;-76
2021/12/05 12:10:24;;;;;;;6.80;3.50;;;7.20;99.90;;;;;;5033484;28;20099;-77
2021/12/05 12:12:53;;;;;;;5.00;3.22;;;7.20;99.90;;;;;;5034216;28;20050;-77
2021/12/05 12:15:21;;;;;;;5.32;3.38;;;7.10;99.90;;;;;;5050325;28;20036;-76
2021/12/05 12:17:48;;;;;;;5.35;3.30;;;7.10;99.90;;;;;;5034825;28;20098;-77
2021/12/05 12:20:19;;;;;;;4.43;3.50;;;7.10;99.90;;;;;;5033938;28;20025;-77
2021/12/05 12:22:47;;;;;;;4.40;3.40;;;7.10;99.90;;;;;;5036962;28;20049;-77
2021/12/05 12:25:18;;;;;;;6.07;3.40;;;7.10;99.90;;;;;;5046757;28;20052;-79
2021/12/05 12:27:46;;;;;;;6.70;3.78;;;7.10;99.90;;;;;;5048907;28;20025;-77
2021/12/05 12:30:19;;;;;;;8.30;3.70;;;7.10;99.90;;;;;;5046994;28;20094;-77
2021/12/05 12:32:48;;;;;;;5.80;3.78;;;7.10;99.90;;;;;;5039835;28;20017;-77
2021/12/05 12:35:18;;;;;;;5.65;3.95;;;7.10;99.90;;;;;;5042123;28;20056;-77
2021/12/05 12:38:10;;;;;;;5.18;3.80;;;7.20;99.90;;;;;;5040950;28;20037;-77
2021/12/05 12:40:41;;;;;;;6.93;4.03;;;7.20;99.90;;;;;;5047736;28;20037;-77
2021/12/05 12:43:09;;;;;;;6.38;4.00;;;7.20;99.90;;;;;;5045887;28;20096;-76
2021/12/05 12:45:41;;;;;;;7.00;4.25;;;7.20;99.90;;;;;;5037396;28;20062;-77
2021/12/05 12:48:16;;;;;;;8.85;4.40;;;7.20;99.90;;;;;;5047326;28;20025;-76
2021/12/05 12:50:51;;;;;;;5.30;4.75;;;7.10;99.90;;;;;;5049157;28;20048;-78
2021/12/05 12:53:23;;;;;;;8.48;4.90;;;7.20;99.90;;;;;;5054742;27;20486;-77
2021/12/05 12:56:05;;;;;;;8.65;5.47;;;7.20;99.90;;;;;;5035454;28;20038;-78
2021/12/05 12:58:48;;;;;;;7.38;5.55;;;7.20;99.90;;;;;;5037858;28;20026;-77
2021/12/05 13:02:03;;;;;;;7.78;5.10;;;7.20;99.90;;;;;;5044080;28;20054;-76
2021/12/05 13:10:42;;;;;;;8.10;5.32;;;7.20;99.90;;;;;;5033231;28;20583;-76
2021/12/05 13:13:25;;;;;;;7.30;5.57;;;7.20;99.90;;;;;;5034534;28;20033;-76
2021/12/05 13:15:53;;;;;;;7.90;6.05;;;7.20;99.90;;;;;;5033209;28;20021;-75
2021/12/05 13:18:31;;;;;;;8.70;6.18;;;7.20;99.90;;;;;;5032828;28;20467;-76
2021/12/05 13:21:17;;;;;;;9.77;6.40;;;7.20;99.90;;;;;;5032813;28;20022;-76
2021/12/05 13:23:46;;;;;;;8.70;7.13;;;7.20;99.90;;;;;;5032355;28;20037;-76
2021/12/05 13:26:19;;;;;;;9.90;7.82;;;7.20;99.90;;;;;;5032898;28;20033;-76
2021/12/05 13:28:59;;;;;;;10.45;7.85;;;7.20;99.90;;;;;;5031453;28;20033;-76
2021/12/05 13:31:30;;;;;;;13.77;8.70;;;7.20;99.90;;;;;;5033106;28;20075;-75
2021/12/05 13:34:14;;;;;;;16.23;10.27;;;7.20;99.90;;;;;;5040516;28;20021;-76
2021/12/05 13:36:43;;;;;;;13.50;9.20;;;7.20;99.90;;;;;;5037452;28;20017;-75
2021/12/05 13:39:27;;;;;;;15.45;9.25;;;7.20;99.90;;;;;;5039904;28;20062;-76
2021/12/05 13:42:05;;;;;;;14.10;8.85;;;7.20;99.90;;;;;;5035536;28;20018;-76
2021/12/05 13:44:59;;;;;;;14.63;9.10;;;7.10;99.90;;;;;;5042789;28;20104;-76
2021/12/05 13:47:31;;;;;;;16.27;9.30;;;7.10;99.90;;;;;;5045474;28;20034;-77
2021/12/05 13:50:22;;;;;;;17.30;9.95;;;7.10;99.90;;;;;;5035022;28;20017;-76
2021/12/05 13:53:07;;;;;;;14.23;9.55;;;7.10;99.90;;;;;;5032803;28;20245;-76
2021/12/05 13:55:55;;;;;;;19.33;10.48;;;7.10;99.90;;;;;;5032005;28;20036;-75
2021/12/05 13:58:38;;;;;;;17.77;10.93;;;7.10;99.90;;;;;;5033012;28;20021;-76
2021/12/05 14:01:18;;;;;;;14.63;10.20;;;7.20;99.90;;;;;;5030238;27;20037;-76
2021/12/05 14:04:09;;;;;;;21.15;11.52;;;7.20;99.90;;;;;;5027119;27;20026;-76
2021/12/05 14:06:40;;;;;;;23.77;12.63;;;7.30;99.90;;;;;;5025739;27;20034;-76
2021/12/05 14:09:08;;;;;;;22.55;12.38;;;7.30;99.90;;;;;;5041508;27;20021;-76
2021/12/05 14:11:36;;;;;;;24.05;13.05;;;7.30;99.90;;;;;;5035084;28;20052;-77
2021/12/05 14:14:05;;;;;;;27.17;14.00;;;7.30;99.90;;;;;;5046398;28;20041;-76
2021/12/05 14:16:36;;;;;;;30.08;15.27;;;7.30;99.90;;;;;;5046389;28;20031;-77
2021/12/05 14:19:05;;;;;;;33.80;15.88;;;7.30;99.90;;;;;;5042006;28;20457;-76
2021/12/05 14:21:31;;;;;;;36.92;16.55;;;7.30;99.90;;;;;;5027092;28;20026;-78
2021/12/05 14:23:59;;;;;;;35.38;16.23;;;7.30;99.90;;;;;;5027980;28;20482;-77
2021/12/05 14:26:27;;;;;;;34.97;16.80;;;7.20;99.90;;;;;;5026876;28;20041;-78
2021/12/05 14:29:11;;;;;;;35.67;16.80;;;7.20;99.90;;;;;;5027308;28;20534;-75
2021/12/05 14:31:42;;;;;;;37.15;17.38;;;7.20;99.90;;;;;;5026463;28;20030;-76
2021/12/05 14:34:09;;;;;;;42.10;17.67;;;7.20;99.90;;;;;;5027118;28;20022;-76
2021/12/05 14:36:48;;;;;;;35.10;17.80;;;7.20;99.90;;;;;;5024859;28;20038;-77
2021/12/05 14:39:21;;;;;;;38.58;16.90;;;7.10;99.90;;;;;;5029523;28;20428;-77
2021/12/05 14:41:50;;;;;;;41.83;18.45;;;7.10;99.90;;;;;;5027599;28;20105;-77
2021/12/05 14:44:18;;;;;;;43.95;18.02;;;7.10;99.90;;;;;;5033343;28;20021;-77
2021/12/05 14:46:46;;;;;;;41.50;17.52;;;7.10;99.90;;;;;;5029052;28;20022;-77
2021/12/05 14:49:11;;;;;;;38.05;18.05;;;7.10;99.90;;;;;;5026449;28;20056;-76
2021/12/05 14:51:40;;;;;;;41.00;17.73;;;7.10;99.90;;;;;;5025324;28;20057;-76
2021/12/05 14:54:08;;;;;;;39.85;16.52;;;7.00;99.90;;;;;;5025764;28;20377;-78
2021/12/05 14:56:37;;;;;;;41.80;17.45;;;7.00;99.90;;;;;;5034946;28;20071;-78
2021/12/05 14:59:12;;;;;;;42.28;18.02;;;7.00;99.90;;;;;;5028484;28;20026;-75
2021/12/05 15:01:39;;;;;;;;;;;7.00;99.90;;;;;;5027548;28;20116;-78
2021/12/05 15:04:06;;;;;;;44.03;19.90;;;7.00;99.90;;;;;;5027214;28;19905;-77
2021/12/05 15:06:41;;;;;;;47.33;21.80;;;6.90;99.90;;;;;;5026848;28;20029;-77
2021/12/05 15:09:14;;;;;;;;;;;7.00;99.90;;;;;;5031346;28;20478;-77
2021/12/05 15:11:47;;;;;;;46.47;22.20;;;6.90;99.90;;;;;;5029994;28;20317;-76
2021/12/05 15:14:12;;;;;;;47.88;23.38;;;6.90;99.90;;;;;;5030521;28;20466;-78
2021/12/05 15:16:53;;;;;;;49.17;23.30;;;6.90;99.90;;;;;;5030774;28;20036;-75
2021/12/05 15:19:19;;;;;;;50.17;23.55;;;6.90;99.90;;;;;;5029661;28;20077;-76
2021/12/05 15:21:45;;;;;;;52.55;24.48;;;6.80;99.90;;;;;;5034051;28;20048;-76
2021/12/05 15:24:16;;;;;;;55.17;24.58;;;6.80;99.90;;;;;;5028348;28;20077;-74
2021/12/05 15:26:42;;;;;;;55.70;24.13;;;6.80;99.90;;;;;;5027432;28;20075;-74
2021/12/05 15:29:08;;;;;;;49.58;23.40;;;6.80;99.90;;;;;;5030134;28;20053;-75
2021/12/05 15:31:39;;;;;;;51.72;24.40;;;6.80;99.90;;;;;;5031234;28;20385;-76
2021/12/05 15:34:33;;;;;;;53.15;24.60;;;6.80;99.90;;;;;;5031776;27;20105;-77
2021/12/05 15:37:07;;;;;;;53.40;24.92;;;6.70;99.90;;;;;;5030779;28;20086;-75
2021/12/05 15:39:34;;;;;;;54.17;25.30;;;6.70;99.90;;;;;;5031807;28;20028;-77
2021/12/05 15:42:00;;;;;;;55.92;26.48;;;6.70;99.90;;;;;;5064904;27;20378;-75
2021/12/05 15:44:28;;;;;;;56.42;25.92;;;6.70;99.90;;;;;;5067430;27;20021;-76
2021/12/05 15:47:06;;;;;;;54.42;26.40;;;6.70;99.90;;;;;;5068442;27;20035;-77
2021/12/05 15:50:06;;;;;;;56.75;27.45;;;6.60;99.90;;;;;;5047437;27;20027;-76
2021/12/05 15:52:34;;;;;;;55.38;26.67;;;6.70;99.90;;;;;;5040828;28;20038;-78
2021/12/05 15:55:00;;;;;;;55.40;27.40;;;6.60;99.90;;;;;;5051029;27;20036;-78
2021/12/05 15:57:35;;;;;;;58.80;26.83;;;6.60;99.90;;;;;;5037050;28;20025;-77
2021/12/05 16:00:11;;;;;;;53.63;27.05;;;6.60;99.90;;;;;;5037047;28;20036;-80
2021/12/05 16:02:39;;;;;;;62.65;29.98;;;6.60;99.90;;;;;;5042643;28;20464;-77
2021/12/05 16:05:21;;;;;;;88.38;43.90;;;6.60;99.90;;;;;;5050008;28;20029;-75
2021/12/05 16:07:49;;;;;;;59.22;28.55;;;6.60;99.90;;;;;;5036395;28;20051;-79
2021/12/05 16:10:23;;;;;;;64.53;27.90;;;6.50;99.90;;;;;;5040725;28;20126;-77
2021/12/05 16:12:52;;;;;;;58.33;27.20;;;6.60;99.90;;;;;;5030930;28;20033;-76
2021/12/05 16:15:20;;;;;;;57.97;27.13;;;6.50;99.90;;;;;;5044724;28;20163;-77
2021/12/05 16:17:59;;;;;;;53.03;27.10;;;6.50;99.90;;;;;;5034470;28;20105;-77
2021/12/05 16:20:37;;;;;;;50.53;25.15;;;6.50;99.90;;;;;;5030924;28;20122;-77
2021/12/05 16:23:26;;;;;;;55.92;27.38;;;6.50;99.90;;;;;;5043360;27;20375;-77
2021/12/05 16:25:57;;;;;;;49.00;24.15;;;6.50;99.90;;;;;;5113485;27;20027;-77
2021/12/05 16:28:26;;;;;;;53.33;25.48;;;6.50;99.90;;;;;;5113509;27;20105;-77
2021/12/05 16:30:58;;;;;;;48.20;24.63;;;6.50;99.90;;;;;;5116228;27;20019;-76
2021/12/05 16:33:24;;;;;;;49.42;25.20;;;6.40;99.90;;;;;;5123656;27;20360;-77
2021/12/05 16:35:53;;;;;;;45.90;24.75;;;6.40;99.90;;;;;;5124478;27;20030;-76
2021/12/05 16:38:30;;;;;;;48.97;25.13;;;6.40;99.90;;;;;;5124202;27;20016;-77
2021/12/05 16:41:01;;;;;;;44.85;23.98;;;6.40;99.90;;;;;;5130924;27;20080;-76
2021/12/05 16:43:29;;;;;;;45.95;25.13;;;6.40;99.90;;;;;;5123981;27;20020;-76
2021/12/05 16:46:07;;;;;;;43.80;23.65;;;6.40;99.90;;;;;;5112489;27;20031;-76
2021/12/05 16:48:35;;;;;;;43.92;23.65;;;6.40;99.90;;;;;;5110558;27;20008;-76
2021/12/05 16:51:21;;;;;;;47.28;24.15;;;6.40;99.90;;;;;;5116909;27;20019;-77
2021/12/05 16:53:50;;;;;;;40.20;22.30;;;6.30;99.90;;;;;;5122933;27;20472;-77
2021/12/05 16:56:54;;;;;;;41.45;22.58;;;6.30;99.90;;;;;;5120764;27;20023;-76
2021/12/05 16:59:23;;;;;;;37.75;21.08;;;6.40;99.90;;;;;;5120090;27;20036;-76
2021/12/05 17:02:07;;;;;;;39.25;20.10;;;6.30;99.90;;;;;;5121801;27;20488;-76
2021/12/05 17:04:43;;;;;;;33.97;18.95;;;6.30;99.90;;;;;;5118144;27;20080;-76
2021/12/05 17:07:13;;;;;;;31.90;17.40;;;6.30;99.90;;;;;;5122981;27;20469;-77
2021/12/05 17:09:40;;;;;;;31.58;18.52;;;6.30;99.90;;;;;;5131063;27;20129;-76
2021/12/05 17:12:23;;;;;;;35.40;18.52;;;6.20;99.90;;;;;;5117541;27;20027;-77
2021/12/05 17:14:49;;;;;;;29.55;17.35;;;6.20;99.90;;;;;;5117300;27;20067;-75
2021/12/05 17:17:31;;;;;;;35.05;18.88;;;6.20;99.90;;;;;;5117972;27;20054;-76
2021/12/05 17:19:57;;;;;;;32.33;18.35;;;6.20;99.90;;;;;;5124565;27;20019;-75
2021/12/05 17:22:22;;;;;;;32.10;18.25;;;6.20;99.90;;;;;;5124147;27;20035;-76
2021/12/05 17:24:49;;;;;;;33.70;18.48;;;6.20;99.90;;;;;;5069606;27;20491;-76
2021/12/05 17:27:17;;;;;;;29.40;17.15;;;6.20;99.90;;;;;;5037045;27;20504;-76
2021/12/05 17:29:45;;;;;;;30.10;17.25;;;6.20;99.90;;;;;;5032226;28;20029;-76
2021/12/05 17:32:20;;;;;;;30.38;17.20;;;6.20;99.90;;;;;;5036665;28;20037;-76
2021/12/05 17:34:53;;;;;;;30.77;17.40;;;6.10;99.90;;;;;;5050798;27;20435;-77
2021/12/05 17:37:24;;;;;;;31.77;18.13;;;6.10;99.90;;;;;;5036713;28;20044;-77
2021/12/05 17:39:51;;;;;;;29.98;17.52;;;6.10;99.90;;;;;;5044625;28;20056;-77
2021/12/05 17:42:20;;;;;;;28.42;16.45;;;6.10;99.90;;;;;;5046372;27;20472;-76
2021/12/05 17:44:49;;;;;;;29.45;17.13;;;6.10;99.90;;;;;;5047959;28;20408;-77
2021/12/05 17:47:16;;;;;;;27.33;16.83;;;6.10;99.90;;;;;;5043024;28;20021;-78
2021/12/05 17:49:44;;;;;;;29.65;17.95;;;6.10;99.90;;;;;;5041222;28;20021;-77
2021/12/05 17:52:12;;;;;;;33.10;18.63;;;6.10;99.90;;;;;;5048599;27;20096;-78
2021/12/05 17:54:54;;;;;;;31.98;17.58;;;6.10;99.90;;;;;;5036859;28;20778;-78
2021/12/05 17:57:34;;;;;;;28.67;17.33;;;6.10;99.90;;;;;;5042454;27;20057;-78
2021/12/05 18:00:12;;;;;;;28.30;15.57;;;6.10;99.90;;;;;;5037786;28;20034;-78
2021/12/05 18:02:44;;;;;;;29.27;15.82;;;6.00;99.90;;;;;;5038191;28;20085;-77
2021/12/05 18:05:20;;;;;;;26.98;16.08;;;6.00;99.90;;;;;;5032751;28;20040;-76
2021/12/05 18:07:48;;;;;;;28.35;15.85;;;6.00;99.90;;;;;;5037434;28;20037;-77
2021/12/05 18:10:16;;;;;;;27.45;16.50;;;6.00;99.90;;;;;;5044755;28;20037;-78
2021/12/05 18:12:43;;;;;;;28.55;15.85;;;6.00;99.90;;;;;;5054694;28;20062;-77
2021/12/05 18:15:16;;;;;;;28.95;16.08;;;5.90;99.90;;;;;;5051198;27;20025;-77
2021/12/05 18:17:42;;;;;;;25.42;15.35;;;6.00;99.90;;;;;;5038620;27;20542;-77
2021/12/05 18:20:11;;;;;;;27.15;16.13;;;5.90;99.90;;;;;;5034994;28;20029;-77
2021/12/05 18:22:38;;;;;;;28.90;16.75;;;5.90;99.90;;;;;;5035803;28;20382;-78
2021/12/05 18:25:04;;;;;;;27.95;17.15;;;5.90;99.90;;;;;;5030204;28;20052;-78
2021/12/05 18:27:30;;;;;;;29.42;17.38;;;5.90;99.90;;;;;;5027223;28;20025;-77
2021/12/05 18:29:56;;;;;;;32.00;18.05;;;5.90;99.90;;;;;;5030692;28;20018;-76
2021/12/05 18:32:22;;;;;;;32.60;18.10;;;5.90;99.90;;;;;;5040109;28;20013;-77
2021/12/05 18:34:48;;;;;;;26.70;16.48;;;5.90;99.90;;;;;;5058894;27;20029;-76
2021/12/05 18:37:14;;;;;;;28.38;16.38;;;5.90;99.90;;;;;;5044740;28;20020;-77
2021/12/05 18:39:52;;;;;;;28.15;17.25;;;5.90;99.90;;;;;;5048439;27;20070;-77